Time;durP1;ratioP1;P1;durP2;ratioP2;P2;SDS_P1;SDS_P2;PMS_P1;PMS_P2;Temp;Humidity;BMP_temperature;BMP_pressure;BME280_temperature;BME280_humidity;BME280_pressure;Samples;Min_cycle;Max_cycle;Signal;HPM_P1;HPM_P2
2022/12/29 12:30:54;;;;;;;9.77;2.20;;;;;;;9.25;90.15;100355.75;5490738;23;20139;-96
2022/12/29 12:34:01;;;;;;;9.77;2.00;;;;;;;9.29;90.55;100352.38;4821653;29;20042;-96
2022/12/29 12:37:01;;;;;;;7.53;1.73;;;;;;;9.36;88.70;100362.06;4837214;29;20048;-96
2022/12/29 12:39:39;;;;;;;10.05;2.08;;;;;;;9.37;89.07;100358.59;4895811;29;20120;-96
2022/12/29 12:42:19;;;;;;;7.43;2.25;;;;;;;9.40;87.62;100350.88;4892307;29;20032;-96
2022/12/29 12:45:11;;;;;;;8.65;1.63;;;;;;;9.45;86.82;100359.63;4892054;29;20028;-96
2022/12/29 12:48:10;;;;;;;6.22;1.63;;;;;;;9.52;87.51;100339.84;4895182;29;20035;-96
2022/12/29 12:50:55;;;;;;;11.23;1.60;;;;;;;9.59;84.65;100359.94;4895685;29;20127;-96
2022/12/29 12:53:36;;;;;;;7.45;1.42;;;;;;;9.61;85.64;100353.03;4892184;29;20410;-96
2022/12/29 12:56:33;;;;;;;6.68;1.38;;;;;;;9.62;85.14;100379.94;4895259;29;20442;-96
2022/12/29 12:59:27;;;;;;;6.55;1.30;;;;;;;9.65;84.73;100366.97;4893116;29;20037;-96
2022/12/29 13:02:11;;;;;;;8.38;1.63;;;;;;;9.64;85.65;100373.88;4894010;29;20029;-96
2022/12/29 13:05:15;;;;;;;7.10;1.63;;;;;;;9.62;85.33;100369.53;4893847;29;20041;-96
2022/12/29 13:07:43;;;;;;;7.05;1.27;;;;;;;9.62;84.66;100380.81;4895045;29;20037;-94
2022/12/29 13:10:15;;;;;;;5.72;1.40;;;;;;;9.62;83.90;100385.13;4890903;29;20033;-95
2022/12/29 13:13:16;;;;;;;5.90;1.67;;;;;;;9.57;86.68;100382.41;4895204;29;20040;-94
2022/12/29 13:16:03;;;;;;;7.28;1.52;;;;;;;9.49;88.19;100384.88;4888140;29;20048;-92
2022/12/29 13:18:46;;;;;;;5.78;1.75;;;;;;;9.33;90.17;100381.06;4887522;29;20127;-91
2022/12/29 13:21:33;;;;;;;7.55;1.60;;;;;;;9.18;91.17;100397.22;4892244;29;20130;-92
2022/12/29 13:24:12;;;;;;;9.00;1.60;;;;;;;9.10;92.63;100405.69;4892112;29;20031;-92
2022/12/29 13:26:37;;;;;;;8.18;1.80;;;;;;;9.04;93.12;100398.66;4888867;29;20028;-91
2022/12/29 13:29:23;;;;;;;7.10;2.00;;;;;;;8.98;94.17;100406.28;4894597;29;20478;-91
2022/12/29 13:32:18;;;;;;;6.40;1.80;;;;;;;8.95;94.05;100408.81;4890271;29;20787;-92
2022/12/29 13:35:21;;;;;;;12.50;2.08;;;;;;;8.93;94.44;100418.31;4871783;29;20025;-92
2022/12/29 13:37:54;;;;;;;9.52;1.73;;;;;;;8.90;95.04;100419.09;4874300;29;20060;-92
2022/12/29 13:40:24;;;;;;;8.68;2.03;;;;;;;8.88;94.74;100418.19;4871608;29;20037;-92
2022/12/29 13:42:51;;;;;;;8.48;2.33;;;;;;;8.86;95.82;100417.28;4867384;29;20025;-92
2022/12/29 13:45:21;;;;;;;10.80;2.40;;;;;;;8.86;95.73;100414.66;4866262;29;20037;-92
2022/12/29 13:47:57;;;;;;;8.32;1.83;;;;;;;8.83;96.19;100407.66;4867213;29;20025;-92
2022/12/29 13:50:27;;;;;;;8.43;2.00;;;;;;;8.81;96.84;100414.56;4866015;29;20553;-92
2022/12/29 13:53:02;;;;;;;7.80;2.00;;;;;;;8.79;96.53;100412.75;4869769;29;20180;-92
2022/12/29 13:55:49;;;;;;;9.15;2.05;;;;;;;8.75;96.75;100409.22;4876143;29;20033;-92
2022/12/29 13:58:39;;;;;;;9.73;2.20;;;;;;;8.73;96.93;100417.81;4884102;29;20068;-92
2022/12/29 14:01:28;;;;;;;9.20;1.80;;;;;;;8.70;96.98;100418.63;4873019;29;20037;-92
2022/12/29 14:03:59;;;;;;;9.48;1.90;;;;;;;8.68;97.11;100417.72;4875883;29;20111;-92
2022/12/29 14:06:27;;;;;;;7.75;1.98;;;;;;;8.66;97.46;100424.56;4866975;29;20029;-92
2022/12/29 14:08:59;;;;;;;9.68;2.00;;;;;;;8.65;97.73;100423.72;4867318;29;20511;-92
2022/12/29 14:11:35;;;;;;;7.70;1.80;;;;;;;8.65;97.88;100422.84;4882611;29;20510;-94
2022/12/29 14:14:14;;;;;;;17.95;6.88;;;;;;;8.64;98.16;100434.94;4867391;29;20033;-92
2022/12/29 14:16:40;;;;;;;8.38;2.35;;;;;;;8.62;97.89;100434.03;4869802;29;20079;-93
2022/12/29 14:19:17;;;;;;;8.15;2.00;;;;;;;8.61;97.95;100439.19;4867066;29;20644;-93
2022/12/29 14:21:55;;;;;;;7.97;2.30;;;;;;;8.59;98.17;100433.06;4870753;29;20030;-96
2022/12/29 14:24:36;;;;;;;5.60;2.00;;;;;;;8.59;97.76;100431.34;4874856;29;20025;-93
2022/12/29 14:27:10;;;;;;;9.02;1.95;;;;;;;8.57;97.81;100427.81;4875932;29;20045;-95
2022/12/29 14:29:46;;;;;;;8.73;2.25;;;;;;;8.58;98.08;100439.13;4875492;29;20032;-95
2022/12/29 14:32:29;;;;;;;7.07;2.17;;;;;;;8.59;97.58;100423.56;4877965;29;20040;-96
2022/12/29 14:35:17;;;;;;;13.27;2.70;;;;;;;8.57;96.95;100427.81;4882252;29;20879;-95
2022/12/29 14:37:42;;;;;;;9.82;2.63;;;;;;;8.57;96.41;100434.75;4881883;29;20068;-93
2022/12/29 14:40:23;;;;;;;8.57;2.15;;;;;;;8.56;97.82;100433.88;4879172;29;20057;-93
2022/12/29 14:42:54;;;;;;;8.57;2.08;;;;;;;8.56;96.83;100439.06;4872814;29;20032;-93
2022/12/29 14:45:19;;;;;;;9.05;2.30;;;;;;;8.58;96.50;100441.72;4874155;29;20074;-94
2022/12/29 14:47:49;;;;;;;7.25;2.10;;;;;;;8.60;96.60;100453.00;4872039;29;20067;-93
2022/12/29 14:50:14;;;;;;;;;;;;;;;8.64;96.02;100452.25;4877058;29;20025;-94
2022/12/29 14:52:52;;;;;;;7.13;2.00;;;;;;;8.62;96.22;100456.53;4876507;29;20031;-92
2022/12/29 14:55:17;;;;;;;7.82;2.28;;;;;;;8.61;95.57;100457.38;4879986;29;20957;-95
2022/12/29 14:57:48;;;;;;;6.85;1.98;;;;;;;8.62;95.67;100451.34;4878445;29;20086;-93
2022/12/29 15:00:32;;;;;;;7.88;2.33;;;;;;;8.61;95.74;100457.38;4877953;29;20107;-96
2022/12/29 15:03:47;;;;;;;6.70;2.33;;;;;;;8.63;95.17;100453.97;4880931;29;20036;-95
2022/12/29 15:06:44;;;;;;;8.00;2.00;;;;;;;8.62;94.78;100460.00;4875852;29;20044;-96
2022/12/29 15:10:01;;;;;;;;;;;;;;;;;;;;;
2022/12/29 15:12:41;;;;;;;7.78;2.17;;;;;;;8.60;95.25;100472.03;4876487;29;20047;-94
2022/12/29 15:15:27;;;;;;;8.00;1.77;;;;;;;8.58;94.45;100463.34;4890351;29;20068;-94
2022/12/29 15:17:53;;;;;;;7.90;2.28;;;;;;;8.56;94.09;100475.44;4875637;29;20109;-95
2022/12/29 15:20:26;;;;;;;6.45;1.70;;;;;;;8.56;93.51;100467.66;4875076;29;20060;-95
2022/12/29 15:22:55;;;;;;;7.07;1.55;;;;;;;8.51;93.32;100477.88;4893238;29;20538;-95
2022/12/29 15:25:21;;;;;;;6.47;1.90;;;;;;;8.51;93.49;100477.88;4877792;29;20029;-95
2022/12/29 15:27:55;;;;;;;5.85;1.33;;;;;;;8.49;92.39;100465.72;4872122;29;20390;-95
2022/12/29 15:30:20;;;;;;;3.78;1.02;;;;;;;8.44;91.91;100480.25;4871869;29;20132;-95
2022/12/29 15:32:47;;;;;;;4.60;1.13;;;;;;;8.41;91.35;100470.66;4875795;29;20112;-95
2022/12/29 15:35:35;;;;;;;3.80;1.23;;;;;;;8.38;90.81;100475.78;4877187;29;20029;-95
2022/12/29 15:38:35;;;;;;;2.97;0.80;;;;;;;8.38;91.13;100480.97;4878928;29;20482;-96
2022/12/29 15:41:07;;;;;;;4.28;1.48;;;;;;;8.33;91.01;100483.44;4878916;29;20440;-94
2022/12/29 15:43:49;;;;;;;3.03;1.05;;;;;;;8.31;91.49;100487.72;4876459;29;20069;-95
2022/12/29 15:46:15;;;;;;;5.00;1.15;;;;;;;8.30;90.81;100485.09;4887994;29;20037;-93
2022/12/29 15:48:41;;;;;;;4.22;1.30;;;;;;;8.26;90.82;100486.72;4879705;29;20037;-95
2022/12/29 15:51:18;;;;;;;3.80;1.30;;;;;;;8.24;90.99;100485.81;4879177;29;21185;-95
2022/12/29 15:53:47;;;;;;;6.43;1.88;;;;;;;8.21;91.16;100483.09;4883742;29;20036;-95
2022/12/29 15:56:30;;;;;;;4.22;1.30;;;;;;;8.20;91.05;100483.97;4885258;29;20033;-96
2022/12/29 15:58:55;;;;;;;9.23;1.30;;;;;;;8.17;91.41;100487.34;4915416;23;20051;-70
2022/12/29 16:01:31;;;;;;;5.50;1.30;;;;;;;8.14;91.47;100502.84;4907875;29;20078;-70
2022/12/29 16:03:59;;;;;;;4.30;1.25;;;;;;;8.13;90.83;100511.44;4909650;29;20028;-70
2022/12/29 16:06:38;;;;;;;4.68;1.50;;;;;;;8.10;90.94;100506.19;4907612;29;20156;-70
2022/12/29 16:09:14;;;;;;;3.60;1.33;;;;;;;8.08;90.81;100512.16;4909828;29;20259;-70
2022/12/29 16:11:45;;;;;;;4.13;1.45;;;;;;;8.04;91.33;100511.19;4907751;29;20064;-72
2022/12/29 16:14:16;;;;;;;5.10;1.27;;;;;;;8.01;90.90;100521.50;4911220;29;20035;-72
2022/12/29 16:16:44;;;;;;;4.97;2.00;;;;;;;7.97;90.51;100520.50;4908500;29;20044;-73
2022/12/29 16:19:21;;;;;;;3.28;1.10;;;;;;;7.95;91.03;100524.78;4907960;29;20032;-73
2022/12/29 16:21:47;;;;;;;3.72;1.13;;;;;;;7.92;90.00;100527.31;4909388;29;20067;-71
2022/12/29 16:24:16;;;;;;;5.32;1.30;;;;;;;7.90;90.23;100533.28;4908025;29;20052;-72
2022/12/29 16:26:51;;;;;;;3.92;1.05;;;;;;;7.87;89.94;100533.19;4908533;29;20056;-73
2022/12/29 16:29:19;;;;;;;3.58;1.00;;;;;;;7.86;89.59;100546.97;4909031;29;20059;-72
2022/12/29 16:32:02;;;;;;;5.72;1.20;;;;;;;7.82;89.72;100549.50;4909685;29;20274;-72
2022/12/29 16:34:33;;;;;;;3.33;1.00;;;;;;;7.79;89.06;100552.00;4911811;29;20051;-72
2022/12/29 16:37:02;;;;;;;5.80;1.27;;;;;;;7.76;89.10;100554.50;4909093;29;20095;-72
2022/12/29 16:39:33;;;;;;;3.70;1.05;;;;;;;7.75;88.85;100550.13;4910407;29;20091;-72
2022/12/29 16:41:59;;;;;;;5.47;1.10;;;;;;;7.73;89.61;100558.69;4910147;29;20108;-73
2022/12/29 16:44:30;;;;;;;6.13;1.27;;;;;;;7.71;89.20;100552.59;4908903;29;20024;-72
2022/12/29 16:47:01;;;;;;;7.97;1.40;;;;;;;7.70;88.60;100556.88;4911406;29;20264;-70
2022/12/29 16:49:28;;;;;;;5.78;1.27;;;;;;;7.69;89.51;100562.94;4909105;29;20048;-70
2022/12/29 16:51:54;;;;;;;6.50;1.45;;;;;;;7.66;89.38;100566.28;4908226;29;20044;-70
2022/12/29 16:54:28;;;;;;;7.20;1.50;;;;;;;7.65;88.94;100561.94;4907921;29;20024;-69
2022/12/29 16:56:54;;;;;;;6.80;2.00;;;;;;;7.65;88.81;100569.72;4909416;29;20071;-70
2022/12/29 16:59:39;;;;;;;4.88;1.70;;;;;;;7.65;88.53;100571.44;4909317;29;20032;-70
2022/12/29 17:02:14;;;;;;;4.50;1.45;;;;;;;7.62;88.74;100576.53;4908890;29;20025;-69
2022/12/29 17:04:39;;;;;;;8.45;2.20;;;;;;;7.59;88.71;100568.63;4910085;29;20144;-70
2022/12/29 17:07:16;;;;;;;9.57;2.88;;;;;;;7.57;88.74;100572.91;4907223;29;20835;-69
2022/12/29 17:09:41;;;;;;;5.03;1.40;;;;;;;7.55;88.61;100572.00;4909575;29;20012;-69
2022/12/29 17:12:10;;;;;;;6.22;1.70;;;;;;;7.52;89.10;100584.81;4910323;29;20020;-69
2022/12/29 17:14:39;;;;;;;8.07;2.00;;;;;;;7.49;88.67;100578.72;4909956;29;20178;-70
2022/12/29 17:17:12;;;;;;;5.10;1.60;;;;;;;7.46;88.38;100578.63;4909203;29;20158;-70
2022/12/29 17:19:38;;;;;;;7.22;1.70;;;;;;;7.44;88.34;100588.09;4907960;29;20168;-69
2022/12/29 17:22:17;;;;;;;6.35;1.60;;;;;;;7.42;88.85;100587.13;4912382;29;20016;-70
2022/12/29 17:24:43;;;;;;;;;;;;;;;7.44;89.12;100582.00;4905870;29;20063;-70
2022/12/29 17:27:36;;;;;;;8.05;1.50;;;;;;;7.39;88.54;100589.63;4896480;29;19935;-70
2022/12/29 17:30:09;;;;;;;10.18;1.83;;;;;;;7.35;88.48;100579.13;4908627;29;20016;-70
2022/12/29 17:32:34;;;;;;;6.25;1.73;;;;;;;7.31;88.16;100602.34;4907626;29;20289;-70
2022/12/29 17:35:00;;;;;;;6.50;1.45;;;;;;;7.28;88.14;100603.94;4902572;29;20016;-70
2022/12/29 17:37:29;;;;;;;6.15;2.08;;;;;;;7.27;88.01;100607.34;4911424;29;20282;-70
2022/12/29 17:39:55;;;;;;;6.03;1.60;;;;;;;7.25;88.14;100603.84;4904805;29;20032;-70
2022/12/29 17:42:21;;;;;;;8.77;3.58;;;;;;;7.22;87.66;100614.13;4902382;29;20025;-70
2022/12/29 17:44:46;;;;;;;12.05;4.40;;;;;;;7.21;87.73;100622.72;4903978;29;20298;-70
2022/12/29 17:47:14;;;;;;;10.10;2.97;;;;;;;7.20;88.03;100615.75;4906372;29;20024;-70
2022/12/29 17:49:39;;;;;;;9.50;2.33;;;;;;;7.17;87.71;100619.16;4901760;29;20255;-70
2022/12/29 17:52:05;;;;;;;9.30;2.47;;;;;;;7.16;88.37;100627.75;4902390;29;20034;-70
2022/12/29 17:54:30;;;;;;;7.03;2.20;;;;;;;7.12;87.81;100624.16;4905514;29;20032;-70
2022/12/29 17:56:56;;;;;;;7.68;1.70;;;;;;;7.11;88.40;100629.28;4902689;29;20024;-69
2022/12/29 17:59:21;;;;;;;9.40;2.00;;;;;;;7.09;88.23;100637.00;4907654;29;20331;-70
2022/12/29 18:01:48;;;;;;;7.82;2.30;;;;;;;7.07;88.68;100640.41;4905460;29;20095;-70
2022/12/29 18:04:16;;;;;;;8.70;2.30;;;;;;;7.06;88.31;100638.63;4903306;29;20016;-70
2022/12/29 18:06:43;;;;;;;7.25;1.88;;;;;;;7.03;89.11;100642.00;4909087;29;20190;-70
2022/12/29 18:09:09;;;;;;;7.80;1.92;;;;;;;7.02;88.79;100642.81;4905272;29;20020;-70
2022/12/29 18:11:39;;;;;;;7.68;1.77;;;;;;;7.01;88.77;100654.03;4906026;29;20076;-70
2022/12/29 18:14:04;;;;;;;;;;;;;;;7.05;89.64;100649.81;4894245;29;20072;-70
2022/12/29 18:16:29;;;;;;;9.95;2.28;;;;;;;6.98;89.00;100651.31;4903517;29;19903;-64
2022/12/29 18:18:55;;;;;;;9.38;2.25;;;;;;;6.96;89.05;100653.84;4900801;29;20020;-64
2022/12/29 18:21:23;;;;;;;6.65;2.17;;;;;;;6.93;89.65;100655.44;4907633;29;20031;-64
2022/12/29 18:23:49;;;;;;;7.70;2.15;;;;;;;6.92;89.22;100657.16;4905217;29;20024;-64
2022/12/29 18:26:21;;;;;;;8.55;2.30;;;;;;;6.89;89.57;100664.81;4906056;29;20024;-64
2022/12/29 18:28:48;;;;;;;8.77;1.88;;;;;;;6.88;89.02;100662.16;4896289;29;20024;-65
2022/12/29 18:31:20;;;;;;;6.85;1.80;;;;;;;6.86;89.44;100671.59;4904269;29;20250;-64
2022/12/29 18:33:46;;;;;;;9.02;1.92;;;;;;;6.85;89.49;100657.78;4893147;29;20016;-64
2022/12/29 18:36:12;;;;;;;13.73;2.85;;;;;;;6.84;89.66;100668.09;4899312;29;20192;-64
2022/12/29 18:38:37;;;;;;;8.43;2.13;;;;;;;6.81;89.33;100674.03;4903210;29;20017;-65
2022/12/29 18:41:03;;;;;;;16.30;5.78;;;;;;;6.79;89.37;100676.56;4896567;29;20302;-65
2022/12/29 18:43:29;;;;;;;20.65;8.18;;;;;;;6.80;89.47;100674.84;4906865;29;20052;-65
2022/12/29 18:45:54;;;;;;;12.63;3.95;;;;;;;6.79;90.14;100676.56;4906811;29;20293;-64
2022/12/29 18:48:20;;;;;;;14.15;3.65;;;;;;;6.78;89.80;100685.16;4895126;29;20084;-69
2022/12/29 18:50:48;;;;;;;12.52;3.72;;;;;;;6.76;90.13;100679.03;4900548;29;20044;-69
2022/12/29 18:53:19;;;;;;;7.85;2.67;;;;;;;6.74;90.40;100683.28;4914206;29;20077;-69
2022/12/29 18:55:45;;;;;;;10.55;2.95;;;;;;;6.75;90.37;100673.81;4904515;29;20030;-70
2022/12/29 18:58:10;;;;;;;12.60;5.47;;;;;;;6.73;90.38;100673.72;4905334;29;20275;-70
2022/12/29 19:00:36;;;;;;;9.70;2.50;;;;;;;6.75;90.58;100674.69;4902040;29;20036;-70
2022/12/29 19:03:02;;;;;;;10.55;2.58;;;;;;;6.74;90.77;100685.84;4903425;29;20036;-69
2022/12/29 19:05:30;;;;;;;11.07;2.75;;;;;;;6.73;90.94;100686.69;4901446;29;20183;-69
2022/12/29 19:07:56;;;;;;;12.13;2.95;;;;;;;6.73;90.59;100693.56;4903782;29;20182;-70
2022/12/29 19:10:24;;;;;;;10.02;2.45;;;;;;;6.74;90.87;100685.00;4899354;29;20013;-70
2022/12/29 19:12:50;;;;;;;12.07;2.60;;;;;;;6.72;90.77;100687.53;4901623;29;20185;-70
2022/12/29 19:15:31;;;;;;;11.35;2.70;;;;;;;6.72;91.20;100690.13;4902200;29;20283;-69
2022/12/29 19:17:59;;;;;;;10.18;2.30;;;;;;;6.72;90.88;100697.88;4912254;29;20182;-69
2022/12/29 19:20:29;;;;;;;13.60;3.33;;;;;;;6.73;90.89;100688.41;4904433;29;20084;-69
2022/12/29 19:22:56;;;;;;;11.68;2.95;;;;;;;6.73;90.96;100694.44;4900649;29;20084;-69
2022/12/29 19:25:22;;;;;;;10.27;2.72;;;;;;;6.75;90.88;100695.41;4903638;29;20012;-69
2022/12/29 19:27:48;;;;;;;10.30;2.60;;;;;;;6.73;90.90;100703.94;4910313;29;20061;-69
2022/12/29 19:30:13;;;;;;;10.40;2.97;;;;;;;6.72;90.95;100707.34;4897869;29;20016;-70
2022/12/29 19:32:40;;;;;;;10.38;3.90;;;;;;;6.71;90.62;100709.06;4913148;29;20024;-69
2022/12/29 19:35:06;;;;;;;11.95;2.70;;;;;;;6.70;90.55;100706.41;4907321;29;20019;-69
2022/12/29 19:37:35;;;;;;;9.65;2.90;;;;;;;6.70;90.84;100717.63;4907572;29;20036;-70
2022/12/29 19:40:01;;;;;;;10.55;3.13;;;;;;;6.70;90.86;100711.59;4906420;29;20028;-70
2022/12/29 19:42:26;;;;;;;9.48;2.40;;;;;;;6.70;90.68;100712.47;4906160;29;20027;-70
2022/12/29 19:44:54;;;;;;;10.80;2.67;;;;;;;6.70;90.95;100715.06;4902652;29;20023;-70
2022/12/29 19:47:20;;;;;;;10.05;2.58;;;;;;;6.70;90.77;100712.47;4904610;29;20020;-64
2022/12/29 19:49:45;;;;;;;11.05;2.72;;;;;;;6.70;90.67;100706.41;4900416;29;20047;-64
2022/12/29 19:52:11;;;;;;;9.98;3.13;;;;;;;6.69;90.05;100720.19;4912645;29;20250;-64
2022/12/29 19:54:36;;;;;;;8.85;2.60;;;;;;;6.68;90.27;100719.31;4906471;29;20313;-64
2022/12/29 19:57:02;;;;;;;9.63;2.40;;;;;;;6.69;90.14;100715.91;4902782;29;20290;-64
2022/12/29 19:59:27;;;;;;;9.10;2.42;;;;;;;6.69;89.89;100728.84;4902038;29;20043;-64
2022/12/29 20:01:52;;;;;;;11.85;2.40;;;;;;;6.69;89.65;100721.06;4902191;29;20024;-64
2022/12/29 20:04:18;;;;;;;8.38;2.95;;;;;;;6.69;89.53;100738.28;4899352;29;20259;-65
2022/12/29 20:06:43;;;;;;;9.15;2.33;;;;;;;6.68;89.56;100732.25;4892041;29;20012;-64
2022/12/29 20:09:08;;;;;;;12.43;2.60;;;;;;;6.66;90.02;100731.28;4897904;29;20020;-64
2022/12/29 20:11:34;;;;;;;10.45;2.50;;;;;;;6.67;89.17;100743.41;4898718;29;20036;-64
2022/12/29 20:14:00;;;;;;;13.35;2.88;;;;;;;6.68;89.26;100740.00;4898536;29;20163;-64
2022/12/29 20:16:26;;;;;;;6.15;2.10;;;;;;;6.69;89.09;100746.06;4892245;29;20033;-65
2022/12/29 20:18:53;;;;;;;12.60;2.35;;;;;;;6.68;89.09;100746.91;4891800;29;20025;-64
2022/12/29 20:21:21;;;;;;;9.73;1.98;;;;;;;6.68;89.27;100741.72;4891341;29;20020;-64
2022/12/29 20:23:47;;;;;;;9.88;2.70;;;;;;;6.67;88.76;100737.38;4901971;29;20036;-65
2022/12/29 20:26:17;;;;;;;8.35;2.40;;;;;;;6.66;88.94;100735.59;4907108;29;20024;-64
2022/12/29 20:28:43;;;;;;;10.50;2.42;;;;;;;6.67;88.95;100743.41;4908929;29;20036;-65
2022/12/29 20:31:32;;;;;;;10.93;2.40;;;;;;;6.64;88.60;100740.72;4907224;29;20084;-64
2022/12/29 20:33:57;;;;;;;10.00;2.00;;;;;;;6.65;89.22;100749.34;4908451;29;20279;-64
2022/12/29 20:36:27;;;;;;;7.38;1.92;;;;;;;6.63;89.13;100757.06;4905462;29;20019;-65
2022/12/29 20:38:54;;;;;;;8.45;1.77;;;;;;;6.63;88.77;100744.13;4900500;29;20041;-65
2022/12/29 20:41:20;;;;;;;7.07;2.28;;;;;;;6.63;88.30;100751.03;4906216;29;20152;-66
2022/12/29 20:43:45;;;;;;;8.73;1.85;;;;;;;6.63;88.29;100754.47;4903797;29;20071;-66
2022/12/29 20:46:13;;;;;;;12.52;2.25;;;;;;;6.61;88.58;100749.25;4894179;29;20025;-65
2022/12/29 20:48:39;;;;;;;6.20;2.00;;;;;;;6.61;88.53;100763.91;4899082;29;20024;-66
2022/12/29 20:51:04;;;;;;;8.75;2.15;;;;;;;6.59;88.84;100761.25;4891821;29;20092;-66
2022/12/29 20:53:31;;;;;;;7.53;1.90;;;;;;;6.59;88.54;100765.56;4892536;29;20232;-66
2022/12/29 20:56:07;;;;;;;8.23;1.92;;;;;;;6.59;88.77;100757.81;4900566;29;20021;-65
2022/12/29 20:58:33;;;;;;;8.15;1.90;;;;;;;6.57;88.53;100768.06;4893013;29;20040;-66
2022/12/29 21:01:01;;;;;;;8.93;2.25;;;;;;;6.57;88.87;100774.97;4907899;29;20654;-66
2022/12/29 21:03:26;;;;;;;10.75;2.25;;;;;;;6.56;88.38;100774.09;4908160;29;20271;-65
2022/12/29 21:05:52;;;;;;;9.88;3.00;;;;;;;6.54;88.95;100774.84;4904744;29;20048;-65
2022/12/29 21:08:19;;;;;;;10.93;3.10;;;;;;;6.52;88.51;100774.78;4906581;29;20064;-66
2022/12/29 21:10:46;;;;;;;10.40;2.80;;;;;;;6.51;88.90;100777.31;4905137;29;20021;-66
2022/12/29 21:13:12;;;;;;;7.00;2.13;;;;;;;6.50;88.97;100775.53;4902727;29;20028;-66
2022/12/29 21:15:37;;;;;;;10.55;2.70;;;;;;;6.50;89.00;100775.53;4901598;29;20099;-66
2022/12/29 21:18:02;;;;;;;8.50;2.28;;;;;;;6.48;88.85;100765.13;4909307;29;20063;-66
2022/12/29 21:20:30;;;;;;;7.80;2.22;;;;;;;6.47;88.83;100759.91;4909246;29;20021;-65
2022/12/29 21:22:58;;;;;;;10.35;2.30;;;;;;;6.44;89.04;100758.97;4906664;29;20163;-66
2022/12/29 21:25:24;;;;;;;12.63;2.33;;;;;;;6.46;88.91;100763.31;4898251;29;20017;-66
2022/12/29 21:27:49;;;;;;;7.68;2.10;;;;;;;6.44;89.24;100758.06;4898304;29;20040;-66
2022/12/29 21:30:15;;;;;;;12.55;2.50;;;;;;;6.42;89.14;100762.31;4898337;29;20036;-66
2022/12/29 21:32:40;;;;;;;6.80;1.92;;;;;;;6.42;88.94;100772.66;4901646;29;20029;-66
2022/12/29 21:35:06;;;;;;;10.35;2.10;;;;;;;6.39;89.33;100770.84;4904884;29;20072;-66
2022/12/29 21:37:33;;;;;;;11.25;2.30;;;;;;;6.38;89.30;100779.41;4896744;29;20343;-66
2022/12/29 21:39:58;;;;;;;8.85;2.25;;;;;;;6.38;89.50;100774.25;4893867;29;20029;-66
2022/12/29 21:42:23;;;;;;;9.90;2.17;;;;;;;6.39;89.01;100781.19;4905360;29;20029;-65
2022/12/29 21:50:17;;;;;;;11.52;2.88;;;;;;;6.37;89.04;100787.13;4902636;29;20076;-66
2022/12/29 21:52:42;;;;;;;8.43;2.38;;;;;;;6.35;89.53;100781.88;4904007;29;20024;-66
2022/12/29 21:55:08;;;;;;;11.93;2.63;;;;;;;6.35;89.87;100786.19;4902114;29;20111;-66
2022/12/29 22:13:59;;;;;;;9.65;2.30;;;;;;;6.29;89.40;100837.72;4901886;29;20323;-65
2022/12/29 22:16:24;;;;;;;9.68;2.63;;;;;;;6.26;89.79;100841.91;4902620;29;20024;-66
2022/12/29 22:18:49;;;;;;;11.13;2.50;;;;;;;6.24;89.74;100846.16;4904330;29;20161;-66
2022/12/29 22:21:15;;;;;;;11.80;2.50;;;;;;;6.22;89.33;100852.97;4899568;29;20073;-65
2022/12/29 22:23:40;;;;;;;8.48;2.08;;;;;;;6.22;89.60;100854.66;4905468;29;20060;-66
2022/12/29 22:26:09;;;;;;;8.55;2.22;;;;;;;6.20;89.70;100858.88;4902669;29;20024;-65
2022/12/29 22:28:39;;;;;;;9.13;2.23;;;;;;;6.21;89.38;100878.75;4904891;29;20053;-65
2022/12/29 22:31:06;;;;;;;10.30;2.13;;;;;;;6.19;89.63;100883.88;4897638;29;20244;-66
2022/12/29 22:33:31;;;;;;;8.48;2.28;;;;;;;6.17;89.44;100882.03;4898526;29;20024;-66
2022/12/29 22:35:57;;;;;;;8.27;2.17;;;;;;;6.16;89.59;100890.66;4903495;29;20243;-66
2022/12/29 22:38:22;;;;;;;8.95;2.00;;;;;;;6.14;89.18;100894.84;4907077;29;20028;-66
2022/12/29 22:40:47;;;;;;;10.55;2.40;;;;;;;6.14;89.40;100892.25;4907382;29;20048;-65
2022/12/29 22:43:13;;;;;;;8.18;1.90;;;;;;;6.14;89.44;100900.03;4902361;29;20028;-65
2022/12/29 22:45:39;;;;;;;9.35;2.88;;;;;;;6.12;88.94;100899.97;4907535;29;20302;-65
2022/12/29 22:48:05;;;;;;;7.20;1.80;;;;;;;6.12;88.88;100901.69;4907285;29;20024;-65
2022/12/29 22:50:30;;;;;;;7.40;1.75;;;;;;;6.09;89.20;100905.88;4908700;29;20298;-65
2022/12/29 22:52:55;;;;;;;8.00;1.90;;;;;;;6.09;88.86;100905.00;4911752;29;20020;-65
2022/12/29 22:55:21;;;;;;;8.40;2.10;;;;;;;6.08;89.32;100914.47;4910470;29;20025;-65
2022/12/29 22:57:46;;;;;;;11.00;2.10;;;;;;;6.08;89.47;100905.81;4910979;29;20039;-65
2022/12/29 23:00:11;;;;;;;10.23;2.05;;;;;;;6.07;89.05;100909.25;4910529;29;20028;-66
2022/12/29 23:02:37;;;;;;;7.28;2.45;;;;;;;6.05;89.47;100911.78;4911373;29;20140;-66
2022/12/29 23:05:03;;;;;;;10.52;2.15;;;;;;;6.05;89.11;100905.69;4909499;29;20033;-66
2022/12/29 23:07:28;;;;;;;6.60;1.75;;;;;;;6.03;88.88;100917.69;4909167;29;20031;-66
2022/12/29 23:09:53;;;;;;;8.45;2.05;;;;;;;6.03;89.48;100909.94;4910596;29;20020;-66
2022/12/29 23:12:19;;;;;;;7.45;1.95;;;;;;;6.03;89.95;100910.81;4911402;29;20207;-66
2022/12/29 23:14:44;;;;;;;10.20;2.03;;;;;;;6.03;89.46;100918.56;4911401;29;20024;-66
2022/12/29 23:17:10;;;;;;;9.00;2.17;;;;;;;6.01;89.50;100915.03;4911432;29;20024;-66
2022/12/29 23:19:35;;;;;;;6.50;2.03;;;;;;;6.00;89.47;100921.03;4911312;29;20024;-65
2022/12/29 23:22:01;;;;;;;8.85;2.17;;;;;;;6.00;89.56;100922.72;4911181;29;20373;-65
2022/12/29 23:24:26;;;;;;;9.07;2.33;;;;;;;6.00;89.65;100927.91;4911085;29;20273;-66
2022/12/29 23:26:51;;;;;;;8.60;2.25;;;;;;;5.98;89.75;100917.50;4910009;29;20091;-66
2022/12/29 23:29:18;;;;;;;9.98;1.98;;;;;;;5.98;89.64;100929.53;4910081;29;20020;-66
2022/12/29 23:31:44;;;;;;;9.63;1.92;;;;;;;5.96;89.87;100937.19;4910893;29;20191;-65
2022/12/29 23:34:11;;;;;;;10.30;2.25;;;;;;;5.95;90.13;100935.41;4908178;29;20027;-66
2022/12/29 23:36:36;;;;;;;9.50;2.10;;;;;;;5.96;89.97;100938.91;4908443;29;20028;-65
2022/12/29 23:39:03;;;;;;;6.53;1.92;;;;;;;5.95;90.07;100947.47;4908771;29;20175;-65
2022/12/29 23:41:29;;;;;;;10.50;2.00;;;;;;;5.93;89.87;100942.22;4909383;29;20087;-66
2022/12/29 23:43:55;;;;;;;7.90;2.13;;;;;;;5.92;90.02;100943.94;4909729;29;20035;-65
2022/12/29 23:46:23;;;;;;;8.02;2.00;;;;;;;5.93;90.33;100947.41;4908744;29;20057;-65
2022/12/29 23:48:48;;;;;;;9.68;2.00;;;;;;;5.92;90.26;100949.13;4904252;29;20194;-66
2022/12/29 23:51:14;;;;;;;9.57;2.53;;;;;;;5.90;90.12;100947.28;4910623;29;20024;-65
2022/12/29 23:53:42;;;;;;;8.90;1.90;;;;;;;5.89;90.21;100953.25;4910705;29;20028;-65
2022/12/29 23:56:12;;;;;;;9.30;2.10;;;;;;;5.87;90.07;100952.31;4910611;29;20020;-66
2022/12/29 23:58:37;;;;;;;10.55;2.25;;;;;;;5.87;90.29;100955.78;4910453;29;20089;-66
